createdAt,value
2023-04-22T00:02:23.675Z,2.15
2023-04-22T00:05:16.426Z,2.47
2023-04-22T00:08:05.092Z,2.22
2023-04-22T00:10:52.756Z,2.00
2023-04-22T00:13:40.453Z,1.85
2023-04-22T00:16:28.237Z,1.95
2023-04-22T00:19:16.479Z,2.38
2023-04-22T00:22:04.499Z,2.33
2023-04-22T00:24:52.094Z,2.38
2023-04-22T00:27:39.748Z,2.72
2023-04-22T00:30:27.718Z,2.38
2023-04-22T00:33:15.569Z,2.50
2023-04-22T00:36:03.649Z,3.13
2023-04-22T00:38:51.485Z,2.38
2023-04-22T00:41:40.226Z,3.60
2023-04-22T00:44:29.448Z,2.30
2023-04-22T00:47:18.033Z,2.88
2023-04-22T00:50:06.352Z,2.70
2023-04-22T00:52:54.490Z,2.67
2023-04-22T00:55:42.270Z,3.28
2023-04-22T00:58:30.863Z,3.50
2023-04-22T01:01:18.994Z,2.67
2023-04-22T01:04:07.035Z,2.55
2023-04-22T01:06:54.921Z,2.42
2023-04-22T01:09:42.744Z,2.55
2023-04-22T01:12:30.608Z,3.40
2023-04-22T01:15:18.777Z,2.78
2023-04-22T01:18:07.050Z,2.67
2023-04-22T01:20:55.195Z,2.95
2023-04-22T01:23:42.995Z,2.22
2023-04-22T01:26:30.833Z,2.88
2023-04-22T01:29:18.795Z,2.83
2023-04-22T01:32:06.978Z,2.92
2023-04-22T01:34:54.735Z,3.42
2023-04-22T01:37:42.535Z,3.10
2023-04-22T01:40:32.133Z,2.53
2023-04-22T01:43:20.141Z,3.28
2023-04-22T01:46:08.814Z,2.83
2023-04-22T01:48:56.554Z,3.67
2023-04-22T01:51:44.218Z,3.72
2023-04-22T01:54:34.184Z,3.60
2023-04-22T01:57:22.010Z,3.95
2023-04-22T02:00:12.883Z,3.95
2023-04-22T02:03:00.808Z,3.83
2023-04-22T02:05:50.154Z,4.13
2023-04-22T02:08:38.784Z,4.80
2023-04-22T02:11:26.899Z,4.35
2023-04-22T02:14:14.677Z,4.63
2023-04-22T02:17:02.594Z,7.03
2023-04-22T02:19:50.228Z,8.80
2023-04-22T02:22:38.617Z,10.50
2023-04-22T02:25:27.169Z,9.60
2023-04-22T02:28:14.884Z,11.05
2023-04-22T02:31:02.825Z,9.30
2023-04-22T02:33:50.611Z,8.85
2023-04-22T02:36:38.352Z,6.72
2023-04-22T02:39:27.589Z,5.38
2023-04-22T02:42:17.188Z,5.10
2023-04-22T02:45:05.605Z,4.85
2023-04-22T02:47:53.337Z,4.72
2023-04-22T02:50:41.061Z,5.72
2023-04-22T02:53:28.789Z,4.97
2023-04-22T02:56:16.568Z,6.13
2023-04-22T02:59:04.314Z,6.97
2023-04-22T03:01:52.076Z,6.65
2023-04-22T03:05:01.056Z,5.35
2023-04-22T03:07:50.626Z,5.18
2023-04-22T03:10:38.306Z,5.30
2023-04-22T03:13:27.486Z,4.45
2023-04-22T03:16:17.066Z,4.55
2023-04-22T03:19:05.145Z,4.00
2023-04-22T03:21:52.974Z,3.50
2023-04-22T03:24:42.654Z,3.50
2023-04-22T03:27:30.587Z,3.40
2023-04-22T03:30:18.299Z,3.95
2023-04-22T03:33:07.907Z,7.78
2023-04-22T03:36:10.801Z,9.88
2023-04-22T03:38:58.725Z,7.00
2023-04-22T03:41:47.274Z,5.25
2023-04-22T03:44:36.091Z,6.05
2023-04-22T03:47:24.062Z,4.45
2023-04-22T03:50:17.185Z,4.72
2023-04-22T03:53:05.164Z,4.75
2023-04-22T03:55:53.341Z,4.88
2023-04-22T03:58:41.122Z,4.97
2023-04-22T04:01:29.745Z,4.93
2023-04-22T04:04:23.566Z,4.63
2023-04-22T04:07:16.439Z,4.90
2023-04-22T04:10:05.007Z,5.60
2023-04-22T04:12:52.744Z,6.53
2023-04-22T04:15:43.256Z,6.55
2023-04-22T04:18:31.541Z,6.72
2023-04-22T04:21:19.373Z,5.32
2023-04-22T04:24:11.039Z,5.82
2023-04-22T04:27:04.547Z,4.68
2023-04-22T04:29:59.044Z,4.95
2023-04-22T04:32:58.157Z,5.15
2023-04-22T04:35:48.264Z,5.07
2023-04-22T04:38:40.189Z,5.18
2023-04-22T04:41:29.734Z,5.05
2023-04-22T04:44:17.508Z,5.13
2023-04-22T04:47:05.675Z,4.22
2023-04-22T04:49:54.693Z,4.50
2023-04-22T04:52:43.175Z,4.15
2023-04-22T04:55:38.915Z,4.57
2023-04-22T04:58:33.496Z,4.30
2023-04-22T05:01:44.356Z,3.47
2023-04-22T05:04:36.757Z,4.28
2023-04-22T05:07:24.640Z,3.75
2023-04-22T05:10:13.868Z,4.13
2023-04-22T05:13:04.010Z,4.95
2023-04-22T05:15:53.870Z,5.40
2023-04-22T05:18:42.102Z,4.35
2023-04-22T05:21:34.060Z,3.30
2023-04-22T05:24:26.103Z,3.20
2023-04-22T05:27:33.150Z,5.13
2023-04-22T05:30:21.677Z,4.75
2023-04-22T05:33:10.464Z,4.25
2023-04-22T05:36:03.372Z,4.57
2023-04-22T05:38:51.590Z,4.35
2023-04-22T05:41:40.193Z,5.32
2023-04-22T05:44:30.374Z,4.95
2023-04-22T05:47:18.581Z,4.95
2023-04-22T05:50:07.378Z,3.85
2023-04-22T05:53:05.222Z,4.72
2023-04-22T05:55:53.918Z,4.13
2023-04-22T05:58:41.635Z,3.92
2023-04-22T06:01:33.496Z,3.83
2023-04-22T06:04:27.707Z,3.72
2023-04-22T06:07:15.991Z,3.72
2023-04-22T06:10:05.354Z,4.43
2023-04-22T06:13:06.482Z,3.35
2023-04-22T06:15:54.269Z,3.05
2023-04-22T06:18:43.739Z,3.00
2023-04-22T06:21:34.117Z,3.30
2023-04-22T06:24:22.733Z,5.13
2023-04-22T06:27:10.493Z,4.63
2023-04-22T06:30:00.481Z,4.40
2023-04-22T06:32:50.028Z,3.72
2023-04-22T06:35:41.543Z,4.27
2023-04-22T06:38:29.215Z,5.05
2023-04-22T06:41:49.690Z,5.30
2023-04-22T06:47:48.147Z,3.85
2023-04-22T06:50:40.560Z,4.88
2023-04-22T06:53:28.543Z,6.20
2023-04-22T06:56:18.458Z,6.07
2023-04-22T06:59:07.898Z,11.10
2023-04-22T07:01:56.636Z,14.13
2023-04-22T07:04:44.578Z,10.10
2023-04-22T07:07:35.010Z,8.30
2023-04-22T07:10:26.116Z,8.95
2023-04-22T07:13:34.546Z,10.20
2023-04-22T07:16:22.256Z,8.45
2023-04-22T07:19:12.601Z,7.93
2023-04-22T07:22:00.478Z,8.15
2023-04-22T07:24:48.213Z,9.95
2023-04-22T07:27:39.328Z,12.65
2023-04-22T07:30:27.071Z,11.05
2023-04-22T07:33:14.954Z,8.85
2023-04-22T07:36:02.648Z,7.40
2023-04-22T07:38:54.527Z,8.07
2023-04-22T07:41:42.197Z,10.30
2023-04-22T07:44:30.003Z,10.25
2023-04-22T07:47:18.736Z,9.25
2023-04-22T07:50:07.268Z,3.67
2023-04-22T07:52:55.030Z,2.00
2023-04-22T07:55:42.658Z,1.77
2023-04-22T07:58:30.511Z,1.52
2023-04-22T08:01:19.954Z,1.85
2023-04-22T08:04:08.355Z,2.85
2023-04-22T08:06:59.719Z,1.30
2023-04-22T08:09:56.968Z,1.63
2023-04-22T08:12:45.010Z,1.67
2023-04-22T08:15:32.658Z,24.10
2023-04-22T08:18:23.012Z,3.42
2023-04-22T08:21:11.255Z,2.33
2023-04-22T08:23:58.952Z,10.63
2023-04-22T08:26:46.689Z,1.63
2023-04-22T08:29:36.773Z,1.55
2023-04-22T08:32:26.691Z,1.35
2023-04-22T08:35:14.624Z,1.38
2023-04-22T08:38:05.691Z,0.63
2023-04-22T08:40:56.839Z,1.07
2023-04-22T08:43:45.587Z,0.90
2023-04-22T08:46:34.108Z,2.05
2023-04-22T08:49:24.851Z,2.03
2023-04-22T08:52:15.712Z,1.15
2023-04-22T08:55:04.093Z,2.00
2023-04-22T08:57:54.654Z,1.38
2023-04-22T09:00:44.391Z,3.42
2023-04-22T09:03:32.839Z,2.50
2023-04-22T09:06:24.887Z,1.33
2023-04-22T09:09:13.040Z,1.50
2023-04-22T09:12:09.030Z,1.05
2023-04-22T09:14:58.635Z,1.77
2023-04-22T09:17:55.857Z,1.90
2023-04-22T09:20:46.960Z,1.40
2023-04-22T09:23:52.138Z,0.60
2023-04-22T09:26:42.203Z,0.35
2023-04-22T09:29:31.699Z,1.08
2023-04-22T09:32:24.937Z,1.30
2023-04-22T09:35:12.731Z,1.30
2023-04-22T09:38:03.601Z,0.60
2023-04-22T09:40:51.531Z,0.32
2023-04-22T09:43:40.279Z,0.50
2023-04-22T09:46:32.316Z,0.52
2023-04-22T09:49:21.741Z,1.15
2023-04-22T09:52:21.800Z,0.70
2023-04-22T09:55:10.154Z,1.45
2023-04-22T09:58:01.643Z,2.70
2023-04-22T10:00:56.304Z,2.38
2023-04-22T10:03:44.418Z,1.45
2023-04-22T10:06:32.633Z,1.60
2023-04-22T10:09:25.583Z,2.20
2023-04-22T10:12:16.568Z,1.58
2023-04-22T10:15:06.686Z,1.13
2023-04-22T10:17:58.178Z,2.53
2023-04-22T10:20:46.719Z,0.40
2023-04-22T10:23:34.698Z,0.50
2023-04-22T10:26:42.720Z,1.15
2023-04-22T10:29:43.688Z,0.40
2023-04-22T10:32:32.240Z,0.13
2023-04-22T10:35:28.572Z,0.43
2023-04-22T10:38:16.698Z,0.35
2023-04-22T10:41:04.943Z,0.57
2023-04-22T10:44:06.656Z,0.43
2023-04-22T10:46:54.263Z,0.65
2023-04-22T10:49:44.281Z,0.40
2023-04-22T10:52:32.474Z,0.82
2023-04-22T10:55:20.422Z,0.38
2023-04-22T10:58:20.539Z,0.32
2023-04-22T11:01:15.772Z,0.25
2023-04-22T11:04:33.263Z,0.40
2023-04-22T11:07:23.058Z,0.30
2023-04-22T11:10:16.034Z,0.50
2023-04-22T11:13:04.070Z,0.30
2023-04-22T11:15:56.338Z,0.28
2023-04-22T11:18:47.394Z,0.40
2023-04-22T11:21:35.095Z,0.20
2023-04-22T11:24:22.806Z,0.40
2023-04-22T11:27:11.410Z,0.40
2023-04-22T11:30:08.255Z,0.22
2023-04-22T11:32:59.455Z,0.40
2023-04-22T11:35:50.185Z,0.45
2023-04-22T11:38:38.054Z,0.40
2023-04-22T11:41:25.851Z,0.50
2023-04-22T11:44:15.128Z,0.70
2023-04-22T11:47:02.807Z,1.02
2023-04-22T11:50:02.179Z,0.60
2023-04-22T11:52:57.236Z,0.43
2023-04-22T11:55:46.811Z,0.68
2023-04-22T11:58:40.254Z,0.63
2023-04-22T12:01:30.116Z,0.60
2023-04-22T12:04:17.802Z,0.43
2023-04-22T12:07:06.130Z,0.50
2023-04-22T12:09:55.374Z,0.55
2023-04-22T12:12:43.037Z,0.40
2023-04-22T12:15:42.168Z,0.40
2023-04-22T12:18:38.773Z,0.50
2023-04-22T12:21:28.624Z,0.88
2023-04-22T12:24:20.649Z,0.75
2023-04-22T12:27:08.347Z,0.75
2023-04-22T12:29:57.574Z,0.55
2023-04-22T12:32:45.356Z,0.55
2023-04-22T12:35:33.773Z,0.60
2023-04-22T12:38:21.476Z,0.75
2023-04-22T12:41:09.308Z,0.40
2023-04-22T12:43:57.117Z,0.70
2023-04-22T12:46:45.099Z,0.98
2023-04-22T12:49:33.091Z,0.60
2023-04-22T12:52:21.268Z,0.70
2023-04-22T12:55:09.061Z,0.68
2023-04-22T12:57:57.102Z,0.52
2023-04-22T13:00:44.739Z,1.35
2023-04-22T13:03:32.608Z,0.40
2023-04-22T13:06:20.577Z,0.85
2023-04-22T13:09:08.427Z,0.65
2023-04-22T13:11:56.188Z,0.82
2023-04-22T13:14:44.502Z,0.50
2023-04-22T13:17:32.794Z,1.17
2023-04-22T13:20:20.880Z,0.55
2023-04-22T13:23:09.969Z,0.60
2023-04-22T13:25:57.874Z,0.40
2023-04-22T13:28:45.809Z,0.90
2023-04-22T13:31:33.665Z,0.57
2023-04-22T13:34:24.114Z,0.70
2023-04-22T13:37:15.163Z,0.45
2023-04-22T13:40:05.974Z,0.83
2023-04-22T13:42:54.070Z,0.60
2023-04-22T13:45:42.644Z,1.10
2023-04-22T13:48:30.441Z,0.75
2023-04-22T13:51:18.146Z,0.82
2023-04-22T13:54:06.250Z,0.60
2023-04-22T13:56:54.291Z,0.63
2023-04-22T13:59:42.397Z,0.60
2023-04-22T14:02:30.329Z,1.48
2023-04-22T14:05:18.126Z,0.73
2023-04-22T14:08:06.041Z,0.32
2023-04-22T14:13:59.824Z,0.70
2023-04-22T14:16:47.682Z,0.60
2023-04-22T14:19:37.744Z,0.88
2023-04-22T14:22:25.644Z,0.68
2023-04-22T14:25:13.524Z,0.75
2023-04-22T14:28:02.639Z,0.65
2023-04-22T14:30:50.405Z,0.20
2023-04-22T14:33:38.236Z,0.38
2023-04-22T14:36:25.863Z,0.45
2023-04-22T14:39:13.550Z,0.40
2023-04-22T14:42:01.291Z,0.40
2023-04-22T14:44:49.022Z,1.15
2023-04-22T14:47:36.823Z,0.63
2023-04-22T14:50:25.952Z,0.98
2023-04-22T14:53:13.766Z,1.13
2023-04-22T14:56:01.448Z,1.02
2023-04-22T14:58:49.198Z,1.33
2023-04-22T15:01:40.857Z,0.88
2023-04-22T15:04:28.775Z,0.68
2023-04-22T15:07:19.016Z,2.50
2023-04-22T15:10:07.168Z,1.80
2023-04-22T15:12:55.254Z,1.17
2023-04-22T15:15:43.082Z,0.90
2023-04-22T15:18:30.847Z,1.25
2023-04-22T15:21:18.547Z,0.93
2023-04-22T15:24:06.394Z,1.50
2023-04-22T15:26:55.043Z,2.00
2023-04-22T15:29:45.507Z,3.67
2023-04-22T15:32:35.490Z,1.48
2023-04-22T15:35:24.176Z,1.00
2023-04-22T15:38:11.916Z,0.80
2023-04-22T15:40:59.589Z,1.50
2023-04-22T15:43:47.210Z,1.83
2023-04-22T15:46:43.891Z,1.33
2023-04-22T15:49:31.946Z,1.02
2023-04-22T15:52:20.873Z,0.82
2023-04-22T15:55:13.773Z,0.85
2023-04-22T15:58:01.639Z,1.63
2023-04-22T16:00:49.447Z,2.63
2023-04-22T16:03:42.963Z,14.05
2023-04-22T16:06:31.378Z,2.58
2023-04-22T16:09:21.497Z,2.47
2023-04-22T16:12:11.716Z,3.10
2023-04-22T16:14:59.638Z,2.88
2023-04-22T16:17:47.646Z,2.75
2023-04-22T16:20:35.745Z,3.25
2023-04-22T16:23:23.453Z,1.50
2023-04-22T16:26:11.206Z,2.33
2023-04-22T16:28:58.975Z,2.38
2023-04-22T16:31:46.777Z,2.45
2023-04-22T16:34:34.662Z,2.17
2023-04-22T16:37:22.362Z,1.50
2023-04-22T16:40:10.555Z,1.63
2023-04-22T16:43:03.364Z,1.58
2023-04-22T16:45:51.103Z,1.90
2023-04-22T16:48:38.955Z,1.77
2023-04-22T16:51:26.759Z,2.95
2023-04-22T16:54:14.397Z,2.90
2023-04-22T16:57:03.115Z,1.35
2023-04-22T16:59:51.186Z,2.33
2023-04-22T17:02:38.974Z,3.33
2023-04-22T17:05:29.925Z,2.70
2023-04-22T17:08:18.827Z,1.70
2023-04-22T17:11:06.596Z,1.75
2023-04-22T17:13:54.328Z,1.98
2023-04-22T17:16:42.024Z,1.73
2023-04-22T17:19:29.686Z,1.80
2023-04-22T17:22:18.566Z,2.13
2023-04-22T17:25:08.091Z,1.67
2023-04-22T17:27:56.384Z,1.88
2023-04-22T17:30:44.029Z,1.52
2023-04-22T17:33:31.758Z,1.30
2023-04-22T17:36:20.182Z,2.17
2023-04-22T17:39:10.556Z,1.90
2023-04-22T17:42:19.184Z,1.48
2023-04-22T17:45:15.258Z,2.53
2023-04-22T17:48:10.295Z,2.15
2023-04-22T17:51:01.704Z,2.53
2023-04-22T17:53:49.625Z,1.85
2023-04-22T17:57:04.110Z,2.53
2023-04-22T17:59:51.829Z,2.30
2023-04-22T18:02:39.793Z,2.88
2023-04-22T18:05:28.302Z,3.03
2023-04-22T18:08:16.173Z,2.70
2023-04-22T18:11:07.156Z,3.03
2023-04-22T18:13:55.268Z,3.80
2023-04-22T18:16:43.249Z,3.50
2023-04-22T18:19:32.118Z,3.17
2023-04-22T18:22:19.956Z,3.15
2023-04-22T18:25:07.950Z,2.58
2023-04-22T18:27:55.744Z,2.13
2023-04-22T18:30:44.457Z,3.38
2023-04-22T18:33:33.385Z,3.90
2023-04-22T18:36:21.654Z,4.60
2023-04-22T18:39:09.845Z,2.83
2023-04-22T18:41:57.502Z,4.75
2023-04-22T18:44:45.123Z,3.47
2023-04-22T18:47:33.253Z,3.72
2023-04-22T18:50:22.630Z,4.72
2023-04-22T18:53:10.686Z,5.78
2023-04-22T18:55:58.531Z,5.72
2023-04-22T18:58:46.239Z,4.90
2023-04-22T19:01:35.411Z,4.63
2023-04-22T19:04:23.288Z,5.60
2023-04-22T19:07:10.975Z,10.10
2023-04-22T19:09:58.616Z,7.50
2023-04-22T19:12:46.327Z,6.22
2023-04-22T19:18:39.060Z,5.57
2023-04-22T19:21:27.340Z,4.72
2023-04-22T19:24:15.280Z,5.00
2023-04-22T19:27:06.953Z,5.20
2023-04-22T19:29:54.746Z,5.10
2023-04-22T19:32:42.681Z,5.50
2023-04-22T19:35:30.432Z,6.60
2023-04-22T19:38:19.357Z,6.00
2023-04-22T19:41:09.111Z,6.50
2023-04-22T19:43:59.109Z,9.35
2023-04-22T19:47:05.355Z,18.77
2023-04-22T19:49:53.296Z,27.38
2023-04-22T19:52:42.363Z,29.23
2023-04-22T19:55:30.427Z,33.90
2023-04-22T19:58:18.548Z,27.55
2023-04-22T20:01:06.478Z,20.73
2023-04-22T20:03:54.774Z,27.95
2023-04-22T20:06:47.614Z,17.27
2023-04-22T20:09:36.670Z,14.25
2023-04-22T20:12:26.247Z,11.80
2023-04-22T20:15:14.358Z,11.88
2023-04-22T20:18:02.252Z,11.70
2023-04-22T20:20:52.117Z,12.52
2023-04-22T20:23:41.445Z,13.50
2023-04-22T20:26:29.209Z,9.57
2023-04-22T20:29:21.509Z,11.90
2023-04-22T20:32:11.067Z,11.02
2023-04-22T20:34:59.260Z,10.85
2023-04-22T20:37:48.309Z,9.57
2023-04-22T20:40:36.485Z,8.95
2023-04-22T20:47:02.375Z,8.93
2023-04-22T20:49:50.088Z,13.07
2023-04-22T20:52:37.801Z,17.33
2023-04-22T20:55:25.544Z,20.75
2023-04-22T20:58:14.919Z,16.40
2023-04-22T21:01:02.824Z,20.27
2023-04-22T21:03:53.104Z,19.35
2023-04-22T21:06:42.098Z,23.13
2023-04-22T21:09:30.105Z,21.52
2023-04-22T21:12:19.593Z,20.65
2023-04-22T21:15:08.076Z,18.40
2023-04-22T21:17:56.792Z,17.50
2023-04-22T21:20:45.747Z,17.88
2023-04-22T21:23:33.895Z,19.02
2023-04-22T21:26:22.154Z,15.98
2023-04-22T21:29:10.109Z,14.80
2023-04-22T21:32:07.406Z,15.13
2023-04-22T21:34:57.072Z,16.70
2023-04-22T21:37:44.719Z,15.25
2023-04-22T21:40:32.417Z,14.25
2023-04-22T21:43:20.041Z,12.90
2023-04-22T21:46:07.814Z,9.77
2023-04-22T21:48:56.282Z,7.53
2023-04-22T21:51:44.050Z,5.95
2023-04-22T21:54:31.737Z,7.18
2023-04-22T21:57:19.451Z,6.75
2023-04-22T22:00:17.749Z,6.50
2023-04-22T22:03:06.464Z,5.75
2023-04-22T22:05:54.149Z,6.57
2023-04-22T22:08:41.966Z,6.60
2023-04-22T22:11:31.370Z,7.22
2023-04-22T22:14:19.254Z,6.30
2023-04-22T22:17:08.642Z,5.68
2023-04-22T22:19:59.131Z,5.32
2023-04-22T22:22:47.683Z,5.75
2023-04-22T22:25:35.531Z,4.95
2023-04-22T22:28:23.378Z,5.13
2023-04-22T22:31:11.038Z,4.68
2023-04-22T22:33:59.142Z,5.13
2023-04-22T22:36:46.842Z,5.13
2023-04-22T22:39:34.629Z,5.63
2023-04-22T22:42:22.460Z,5.35
2023-04-22T22:45:10.850Z,6.30
2023-04-22T22:47:58.555Z,4.88
2023-04-22T22:50:49.160Z,5.32
2023-04-22T22:53:37.090Z,7.13
2023-04-22T22:56:24.885Z,5.70
2023-04-22T22:59:14.552Z,6.45
2023-04-22T23:02:02.747Z,6.07
2023-04-22T23:04:51.814Z,5.90
2023-04-22T23:07:40.602Z,5.05
2023-04-22T23:10:28.273Z,4.57
2023-04-22T23:13:16.250Z,5.20
2023-04-22T23:16:04.721Z,4.85
2023-04-22T23:18:52.745Z,5.03
2023-04-22T23:21:44.943Z,5.93
2023-04-22T23:27:20.484Z,5.97
2023-04-22T23:30:08.928Z,5.90
2023-04-22T23:33:02.451Z,5.40
2023-04-22T23:35:52.464Z,5.90
2023-04-22T23:38:40.114Z,6.57
2023-04-22T23:41:27.948Z,7.13
2023-04-22T23:44:15.642Z,7.63
2023-04-22T23:47:04.357Z,7.45
2023-04-22T23:49:52.115Z,6.38
2023-04-22T23:52:41.539Z,6.70
2023-04-22T23:55:29.483Z,11.25
2023-04-22T23:58:17.272Z,11.93
